Time;durP1;ratioP1;P1;durP2;ratioP2;P2;SDS_P1;SDS_P2;PMS_P1;PMS_P2;Temp;Humidity;BMP_temperature;BMP_pressure;BME280_temperature;BME280_humidity;BME280_pressure;Samples;Min_cycle;Max_cycle;Signal;HPM_P1;HPM_P2
2022/02/06 00:01:39;;;;;;;;;;;;;;;9.28;75.56;100158.91;6167158;23;19975;-81
2022/02/06 00:04:05;;;;;;;;;;;;;;;9.29;76.09;100155.06;6164891;23;19930;-77
2022/02/06 00:06:52;;;;;;;;;;;;;;;9.24;76.90;100148.53;6163232;23;19913;-81
2022/02/06 00:09:17;;;;;;;;;;;;;;;9.27;76.98;100138.97;6138729;23;19908;-80
2022/02/06 00:11:43;;;;;;;;;;;;;;;9.17;77.92;100134.28;6162716;23;19919;-80
2022/02/06 00:14:16;;;;;;;;;;;;;;;9.18;78.30;100160.47;6136474;23;19913;-79
2022/02/06 00:16:50;;;;;;;;;;;;;;;9.09;78.69;100134.78;6147905;23;19960;-80
2022/02/06 00:19:16;;;;;;;;;;;;;;;9.09;78.90;100124.66;6136095;23;19917;-78
2022/02/06 00:21:41;;;;;;;;;;;;;;;9.07;79.16;100131.50;6160440;23;19916;-78
2022/02/06 00:24:16;;;;;;;;;;;;;;;9.13;78.79;100130.44;6135319;23;20516;-75
2022/02/06 00:26:54;;;;;;;;;;;;;;;9.14;78.52;100115.72;6132781;23;19908;-75
2022/02/06 00:29:29;;;;;;;;;;;;;;;9.07;79.04;100120.59;6157296;23;19916;-75
2022/02/06 00:32:06;;;;;;;;;;;;;;;9.10;79.97;100103.69;6156890;23;20339;-75
2022/02/06 00:41:08;;;;;;;;;;;;;;;9.06;81.12;100103.38;6068211;23;19992;-76
2022/02/06 00:43:21;;;;;;;;;;;;;;;;;;;;;
2022/02/06 00:45:49;;;;;;;;;;;;;;;8.94;82.36;100093.78;6157917;23;19983;-77
2022/02/06 00:48:20;;;;;;;;;;;;;;;8.98;82.51;100097.59;6130677;23;19991;-76
2022/02/06 00:50:49;;;;;;;;;;;;;;;8.90;82.96;100093.47;6156568;23;20335;-77
2022/02/06 00:53:17;;;;;;;;;;;;;;;8.97;83.00;100079.63;6153261;23;19912;-75
2022/02/06 00:55:43;;;;;;;;;;;;;;;8.95;82.74;100079.03;6156512;23;20332;-75
2022/02/06 00:58:08;;;;;;;;;;;;;;;8.93;83.26;100092.13;6181160;23;19909;-76
2022/02/06 01:01:04;;;;;;;;;;;;;;;8.96;82.92;100069.78;6158463;23;19941;-76
2022/02/06 01:03:29;;;;;;;;;;;;;;;8.91;83.20;100052.31;6130396;23;20276;-75
2022/02/06 01:05:55;;;;;;;;;;;;;;;8.82;83.83;100063.97;6128552;23;19916;-75
2022/02/06 01:08:29;;;;;;;;;;;;;;;8.77;84.44;100044.84;6127479;23;20315;-73
2022/02/06 01:10:55;;;;;;;;;;;;;;;8.80;84.82;100044.31;6153852;23;19916;-73
2022/02/06 01:16:11;;;;;;;;;;;;;;;;;;;;;
2022/02/06 01:18:54;;;;;;;;;;;;;;;8.81;84.79;100037.81;6152635;23;19987;-75
2022/02/06 01:23:55;;;;;;;;;;;;;;;8.67;86.21;100031.97;6162731;23;19916;-73
2022/02/06 01:26:31;;;;;;;;;;;;;;;8.72;86.08;100037.47;6155007;23;19917;-73
2022/02/06 01:29:08;;;;;;;;;;;;;;;8.72;85.71;100037.47;6151493;23;19920;-72
2022/02/06 01:34:22;;;;;;;;;;;;;;;8.66;86.54;100022.16;6179254;23;19968;-73
2022/02/06 01:37:02;;;;;;;;;;;;;;;8.71;85.90;100019.47;6139933;23;19928;-73
2022/02/06 01:40:07;;;;;;;;;;;;;;;8.72;85.82;100011.03;6131321;23;19952;-72
2022/02/06 01:42:43;;;;;;;;;;;;;;;8.71;86.36;100019.47;6153068;23;19920;-72
2022/02/06 02:01:39;;;;;;;;;;;;;;;8.73;86.73;100000.94;6152601;23;19958;-74
2022/02/06 02:04:27;;;;;;;;;;;;;;;8.70;86.90;100018.66;6150133;23;19908;-73
2022/02/06 02:33:22;;;;;;;;;;;;;;;8.79;86.76;99945.38;6193396;23;19912;-73
2022/02/06 02:46:39;;;;;;;;;;;;;;;8.84;87.11;99914.56;6195342;23;19912;-78
2022/02/06 02:49:08;;;;;;;;;;;;;;;8.86;86.80;99902.31;6182719;23;19979;-72
2022/02/06 02:51:57;;;;;;;;;;;;;;;8.89;86.87;99901.78;6188901;23;19960;-76
2022/02/06 02:54:26;;;;;;;;;;;;;;;8.87;87.24;99895.75;6208270;23;19914;-71
2022/02/06 02:57:04;;;;;;;;;;;;;;;8.85;86.98;99906.13;6187414;23;19919;-74
2022/02/06 03:02:14;;;;;;;;;;;;;;;8.85;87.42;99883.50;6177332;23;20341;-72
2022/02/06 03:04:44;;;;;;;;;;;;;;;8.88;87.38;99867.41;6157426;23;19916;-73
2022/02/06 03:07:09;;;;;;;;;;;;;;;8.91;86.83;99861.41;6157584;23;19920;-73
2022/02/06 03:09:39;;;;;;;;;;;;;;;8.89;87.21;99857.31;6181668;23;20338;-73
2022/02/06 03:12:05;;;;;;;;;;;;;;;8.86;87.02;99836.88;6185597;23;19918;-72
2022/02/06 03:14:42;;;;;;;;;;;;;;;8.90;87.03;99842.59;6159005;23;19995;-73
2022/02/06 03:17:31;;;;;;;;;;;;;;;8.91;87.07;99834.16;6183043;23;20318;-73
2022/02/06 03:20:04;;;;;;;;;;;;;;;8.91;87.29;99839.59;6182350;23;19982;-74
2022/02/06 03:22:35;;;;;;;;;;;;;;;8.90;86.93;99843.41;6183436;23;19936;-73
2022/02/06 03:25:07;;;;;;;;;;;;;;;8.89;86.92;99824.59;6182430;23;19948;-74
2022/02/06 03:27:41;;;;;;;;;;;;;;;8.87;87.05;99822.13;6177991;23;20007;-74
2022/02/06 03:30:07;;;;;;;;;;;;;;;8.81;87.00;99828.69;6183421;23;19909;-73
2022/02/06 03:32:32;;;;;;;;;;;;;;;8.85;87.60;99818.06;6155794;23;20283;-74
2022/02/06 03:34:57;;;;;;;;;;;;;;;8.86;87.09;99815.06;6181356;23;19916;-73
2022/02/06 03:37:23;;;;;;;;;;;;;;;8.82;87.37;99807.66;6183916;23;19924;-73
2022/02/06 03:39:52;;;;;;;;;;;;;;;8.74;87.60;99806.31;6182421;23;19923;-73
2022/02/06 03:42:17;;;;;;;;;;;;;;;8.84;87.88;99803.59;6158635;23;19916;-74
2022/02/06 03:44:48;;;;;;;;;;;;;;;8.89;87.15;99781.81;6183381;23;20266;-73
2022/02/06 03:47:19;;;;;;;;;;;;;;;8.87;87.49;99786.69;6181535;23;19920;-74
2022/02/06 03:52:10;;;;;;;;;;;;;;;8.85;87.43;99786.16;6156857;23;20361;-73
2022/02/06 03:54:35;;;;;;;;;;;;;;;8.82;87.73;99764.06;6155690;23;19970;-73
2022/02/06 03:57:00;;;;;;;;;;;;;;;8.84;88.12;99768.16;6184243;23;19986;-73
2022/02/06 03:59:26;;;;;;;;;;;;;;;8.80;87.93;99758.88;6184409;23;19924;-73
2022/02/06 04:01:51;;;;;;;;;;;;;;;8.81;88.35;99765.97;6179957;23;19944;-74
2022/02/06 04:04:16;;;;;;;;;;;;;;;8.87;87.93;99758.63;6185139;23;19908;-73
2022/02/06 04:06:42;;;;;;;;;;;;;;;8.85;87.75;99749.91;6199574;23;19912;-71
2022/02/06 04:09:14;;;;;;;;;;;;;;;8.81;88.05;99746.88;6200847;23;19987;-75
2022/02/06 04:11:52;;;;;;;;;;;;;;;8.81;88.32;99749.63;6182338;23;19961;-75
2022/02/06 04:14:27;;;;;;;;;;;;;;;8.75;88.84;99747.97;6159499;23;19915;-75
2022/02/06 04:16:56;;;;;;;;;;;;;;;8.75;88.92;99753.44;6180866;23;19920;-75
2022/02/06 04:19:27;;;;;;;;;;;;;;;8.79;88.77;99742.78;6181930;23;19916;-74
2022/02/06 04:21:53;;;;;;;;;;;;;;;8.80;88.44;99731.59;6182841;23;19919;-75
2022/02/06 04:24:19;;;;;;;;;;;;;;;8.77;88.84;99734.06;6184252;23;19916;-74
2022/02/06 04:26:44;;;;;;;;;;;;;;;8.84;88.84;99731.91;6182273;23;19912;-74
2022/02/06 04:29:10;;;;;;;;;;;;;;;8.78;88.76;99720.16;6182831;23;19912;-75
2022/02/06 04:31:38;;;;;;;;;;;;;;;8.80;89.09;99728.88;6182003;23;19923;-75
2022/02/06 04:34:03;;;;;;;;;;;;;;;8.83;89.06;99711.97;6183882;23;19934;-75
2022/02/06 04:36:35;;;;;;;;;;;;;;;8.85;88.83;99715.25;6157364;23;19998;-75
2022/02/06 04:44:56;;;;;;;;;;;;;;;8.78;89.15;99682.00;6185593;23;20287;-75
2022/02/06 05:11:37;;;;;;;;;;;;;;;8.88;89.07;99619.28;6161594;23;19920;-74
2022/02/06 05:34:12;;;;;;;;;;;;;;;8.91;89.48;99594.19;6164992;23;19916;-74
2022/02/06 05:36:37;;;;;;;;;;;;;;;8.91;89.81;99583.28;6154481;23;19987;-75
2022/02/06 05:39:03;;;;;;;;;;;;;;;8.93;89.97;99568.56;6104489;23;19912;-74
2022/02/06 05:41:29;;;;;;;;;;;;;;;9.00;89.64;99574.56;6156235;23;19916;-74
2022/02/06 05:43:55;;;;;;;;;;;;;;;8.95;89.97;99569.94;6130298;23;19917;-74
2022/02/06 05:46:20;;;;;;;;;;;;;;;8.98;89.64;99546.72;6154698;23;20267;-73
2022/02/06 05:48:45;;;;;;;;;;;;;;;9.02;89.44;99556.84;6130586;23;19987;-75
2022/02/06 05:51:12;;;;;;;;;;;;;;;8.96;89.80;99544.28;6157401;23;19908;-74
2022/02/06 05:53:41;;;;;;;;;;;;;;;8.97;89.91;99536.94;6157311;23;19913;-74
2022/02/06 05:56:07;;;;;;;;;;;;;;;8.98;90.12;99550.28;6130741;23;20227;-76
2022/02/06 05:58:32;;;;;;;;;;;;;;;9.00;89.91;99537.19;6130232;23;19948;-75
2022/02/06 06:00:58;;;;;;;;;;;;;;;9.02;89.92;99531.47;6151835;23;19912;-75
2022/02/06 06:03:23;;;;;;;;;;;;;;;9.00;90.29;99520.03;6152798;23;19908;-75
2022/02/06 06:05:48;;;;;;;;;;;;;;;9.04;89.90;99540.19;6128742;23;19915;-74
2022/02/06 06:08:14;;;;;;;;;;;;;;;9.07;90.17;99505.00;6154002;23;19919;-74
2022/02/06 06:10:39;;;;;;;;;;;;;;;9.06;90.20;99508.00;6103838;23;19913;-74
2022/02/06 06:13:04;;;;;;;;;;;;;;;9.01;90.17;99511.56;6125793;23;19913;-73
2022/02/06 06:15:30;;;;;;;;;;;;;;;9.05;90.20;99496.28;6127188;23;20246;-74
2022/02/06 06:17:57;;;;;;;;;;;;;;;9.03;90.39;99503.09;6154832;23;19908;-74
2022/02/06 06:20:25;;;;;;;;;;;;;;;9.01;90.66;99480.72;6153981;23;19920;-74
2022/02/06 06:22:54;;;;;;;;;;;;;;;9.04;90.49;99482.91;6128196;23;19908;-74
2022/02/06 06:25:19;;;;;;;;;;;;;;;9.04;90.55;99478.28;6155152;23;19921;-75
2022/02/06 06:27:45;;;;;;;;;;;;;;;9.05;90.71;99473.63;6130384;23;19913;-75
2022/02/06 06:30:10;;;;;;;;;;;;;;;9.05;90.77;99451.81;6152420;23;19912;-75
2022/02/06 06:32:36;;;;;;;;;;;;;;;9.08;90.55;99462.16;6156346;23;19912;-74
2022/02/06 06:35:03;;;;;;;;;;;;;;;9.09;90.41;99453.69;6128081;23;19912;-74
2022/02/06 06:37:29;;;;;;;;;;;;;;;9.13;90.79;99475.78;6157686;23;19908;-74
2022/02/06 06:40:04;;;;;;;;;;;;;;;9.13;90.77;99448.50;6125662;23;20235;-74
2022/02/06 06:42:39;;;;;;;;;;;;;;;9.18;90.45;99417.66;6129059;23;20316;-74
2022/02/06 06:45:05;;;;;;;;;;;;;;;9.16;90.63;99428.84;6125455;23;19917;-74
2022/02/06 06:47:30;;;;;;;;;;;;;;;9.16;90.70;99409.75;6177596;23;19928;-74
2022/02/06 06:49:56;;;;;;;;;;;;;;;9.21;90.88;99401.56;6142885;23;19919;-75
2022/02/06 06:52:21;;;;;;;;;;;;;;;9.24;90.58;99406.44;6129504;23;19987;-75
2022/02/06 06:54:51;;;;;;;;;;;;;;;9.25;90.62;99427.16;6103766;23;19913;-74
2022/02/06 06:57:23;;;;;;;;;;;;;;;9.23;90.72;99420.38;6107709;23;19938;-74
2022/02/06 07:02:33;;;;;;;;;;;;;;;9.24;90.75;99416.53;6165021;23;19908;-75
2022/02/06 07:05:36;;;;;;;;;;;;;;;9.24;90.56;99422.81;6152612;23;19998;-76
2022/02/06 07:11:16;;;;;;;;;;;;;;;9.24;90.67;99427.44;6145097;23;19912;-75
2022/02/06 07:14:00;;;;;;;;;;;;;;;9.24;90.90;99449.25;6104418;23;19917;-75
2022/02/06 07:16:36;;;;;;;;;;;;;;;9.24;90.83;99436.47;6154874;23;19999;-76
2022/02/06 07:19:33;;;;;;;;;;;;;;;9.25;91.19;99443.53;6104580;23;20324;-78
2022/02/06 07:25:10;;;;;;;;;;;;;;;9.29;90.98;99453.88;6064393;23;19988;-75
2022/02/06 07:28:17;;;;;;;;;;;;;;;;;;;;;
2022/02/06 07:30:45;;;;;;;;;;;;;;;9.27;91.10;99440.50;6123677;23;19940;-75
2022/02/06 07:33:39;;;;;;;;;;;;;;;9.32;90.58;99439.69;6123173;23;19920;-75
2022/02/06 07:36:27;;;;;;;;;;;;;;;9.30;90.72;99452.78;6122278;23;19909;-75
2022/02/06 07:39:11;;;;;;;;;;;;;;;;;;;;;
2022/02/06 07:44:49;;;;;;;;;;;;;;;9.25;90.26;99434.53;6120774;23;19932;-75
2022/02/06 07:51:02;;;;;;;;;;;;;;;;;;;;;
2022/02/06 07:53:58;;;;;;;;;;;;;;;;;;;;;
2022/02/06 07:59:13;;;;;;;;;;;;;;;9.40;90.42;99431.72;6107061;23;19913;-73
2022/02/06 08:01:38;;;;;;;;;;;;;;;9.42;90.07;99434.16;6122762;23;19987;-73
2022/02/06 08:04:03;;;;;;;;;;;;;;;9.49;89.65;99440.13;6124246;23;20355;-73
2022/02/06 08:06:29;;;;;;;;;;;;;;;9.57;89.74;99436.78;6126391;23;19913;-78
2022/02/06 08:08:59;;;;;;;;;;;;;;;9.56;89.07;99423.41;6125832;23;19909;-77
2022/02/06 08:11:24;;;;;;;;;;;;;;;9.36;88.62;99429.81;6125463;23;20324;-76
2022/02/06 08:13:56;;;;;;;;;;;;;;;9.28;89.44;99435.88;6125245;23;19943;-77
2022/02/06 08:16:21;;;;;;;;;;;;;;;9.13;89.89;99421.22;6124920;23;19979;-77
2022/02/06 08:18:46;;;;;;;;;;;;;;;9.19;90.01;99419.28;6106974;23;20520;-76
2022/02/06 08:21:12;;;;;;;;;;;;;;;9.11;90.13;99428.88;6114638;23;19924;-77
2022/02/06 08:23:48;;;;;;;;;;;;;;;9.08;90.67;99483.97;6131921;23;19909;-77
2022/02/06 08:26:19;;;;;;;;;;;;;;;9.09;90.34;99494.59;6126034;23;19917;-75
2022/02/06 08:28:45;;;;;;;;;;;;;;;9.13;90.77;99481.25;6125119;23;19924;-74
2022/02/06 08:31:11;;;;;;;;;;;;;;;9.04;90.20;99493.84;6123088;23;20392;-78
2022/02/06 08:33:36;;;;;;;;;;;;;;;8.87;90.29;99494.16;6122678;23;19913;-77
2022/02/06 08:36:04;;;;;;;;;;;;;;;8.65;89.78;99464.50;6129038;23;19921;-80
2022/02/06 08:38:32;;;;;;;;;;;;;;;8.39;89.77;99484.41;6123488;23;19983;-76
2022/02/06 08:41:00;;;;;;;;;;;;;;;8.29;90.10;99527.19;6125846;23;19996;-76
2022/02/06 08:43:26;;;;;;;;;;;;;;;8.20;90.24;99486.06;6103179;23;19936;-78
2022/02/06 08:46:02;;;;;;;;;;;;;;;8.21;90.38;99504.84;6129409;23;20312;-78
2022/02/06 08:48:34;;;;;;;;;;;;;;;8.19;90.42;99517.94;6103031;23;20248;-78
2022/02/06 08:51:09;;;;;;;;;;;;;;;8.15;90.48;99505.94;6100545;23;19913;-76
2022/02/06 08:53:44;;;;;;;;;;;;;;;8.14;90.72;99501.56;6126108;23;19909;-77
2022/02/06 08:56:12;;;;;;;;;;;;;;;8.16;90.66;99517.66;6100680;23;19980;-78
2022/02/06 08:58:37;;;;;;;;;;;;;;;8.18;90.24;99529.91;6127839;23;20284;-76
2022/02/06 09:01:05;;;;;;;;;;;;;;;8.24;89.51;99525.28;6127849;23;19920;-78
2022/02/06 09:03:31;;;;;;;;;;;;;;;8.33;89.60;99537.25;6101743;23;19972;-78
2022/02/06 09:05:56;;;;;;;;;;;;;;;8.46;88.73;99538.66;6101987;23;20324;-77
2022/02/06 09:08:29;;;;;;;;;;;;;;;8.59;88.31;99541.94;6127447;23;20336;-77
2022/02/06 09:10:57;;;;;;;;;;;;;;;8.59;87.59;99563.72;6101477;23;19916;-77
2022/02/06 09:13:33;;;;;;;;;;;;;;;;;;;;;
2022/02/06 09:15:58;;;;;;;;;;;;;;;8.62;86.89;99519.56;6127369;23;19975;-76
2022/02/06 09:18:26;;;;;;;;;;;;;;;8.69;87.07;99531.00;6126869;23;19943;-76
2022/02/06 09:20:52;;;;;;;;;;;;;;;8.73;86.25;99532.06;6127854;23;19919;-78
2022/02/06 09:23:19;;;;;;;;;;;;;;;8.81;86.23;99545.16;6128713;23;19991;-78
2022/02/06 09:26:05;;;;;;;;;;;;;;;8.83;85.38;99529.31;6127038;23;19920;-78
2022/02/06 09:28:30;;;;;;;;;;;;;;;8.87;84.93;99527.69;6176394;23;19912;-78
2022/02/06 09:30:55;;;;;;;;;;;;;;;8.93;85.35;99546.75;6171703;23;19919;-77
2022/02/06 09:35:49;;;;;;;;;;;;;;;8.96;84.81;99546.22;6157942;23;19958;-78
2022/02/06 09:38:14;;;;;;;;;;;;;;;9.05;85.21;99534.47;6158764;23;19932;-78
2022/02/06 09:40:44;;;;;;;;;;;;;;;9.18;85.44;99549.41;6157445;23;20269;-78
2022/02/06 09:43:17;;;;;;;;;;;;;;;9.40;85.92;99573.63;6131329;23;19909;-76
2022/02/06 09:45:45;;;;;;;;;;;;;;;9.86;84.64;99553.44;6107944;23;19917;-78
2022/02/06 09:48:11;;;;;;;;;;;;;;;9.96;83.06;99569.78;6131235;23;19913;-79
2022/02/06 09:50:37;;;;;;;;;;;;;;;9.87;82.28;99560.56;6130712;23;20264;-79
2022/02/06 09:53:02;;;;;;;;;;;;;;;9.90;82.38;99560.00;6156905;23;19925;-79
2022/02/06 09:55:30;;;;;;;;;;;;;;;10.01;81.90;99570.84;6130365;23;19909;-78
2022/02/06 10:00:45;;;;;;;;;;;;;;;9.81;80.64;99577.25;6117794;23;19917;-79
2022/02/06 10:03:11;;;;;;;;;;;;;;;9.70;79.71;99576.50;6153179;23;20394;-74
2022/02/06 10:05:52;;;;;;;;;;;;;;;;;;;;;
2022/02/06 10:08:21;;;;;;;;;;;;;;;9.62;77.85;99596.97;6155994;23;20391;-82
2022/02/06 10:11:08;;;;;;;;;;;;;;;9.72;78.18;99613.31;6156762;23;19908;-79
2022/02/06 10:13:39;;;;;;;;;;;;;;;9.81;77.52;99605.34;6133841;23;20313;-81
2022/02/06 10:16:11;;;;;;;;;;;;;;;9.79;77.11;99591.97;6132375;23;20311;-80
2022/02/06 10:18:39;;;;;;;;;;;;;;;9.76;77.03;99572.63;6158628;23;19912;-78
2022/02/06 10:21:19;;;;;;;;;;;;;;;;;;;;;
2022/02/06 10:23:50;;;;;;;;;;;;;;;9.80;77.03;99603.75;6156087;23;19999;-80
2022/02/06 10:26:23;;;;;;;;;;;;;;;9.86;76.73;99597.16;6140815;23;20270;-79
2022/02/06 10:29:09;;;;;;;;;;;;;;;;;;;;;
2022/02/06 10:31:50;;;;;;;;;;;;;;;9.93;74.32;99610.50;6184456;23;19991;-77
2022/02/06 10:34:25;;;;;;;;;;;;;;;10.17;75.20;99640.66;6183907;23;19908;-77
2022/02/06 10:37:09;;;;;;;;;;;;;;;10.42;73.08;99614.31;6184084;23;19912;-77
2022/02/06 10:39:37;;;;;;;;;;;;;;;10.86;73.14;99613.38;6183970;23;19975;-80
2022/02/06 10:42:03;;;;;;;;;;;;;;;11.28;71.64;99625.56;6182977;23;20323;-77
2022/02/06 10:44:29;;;;;;;;;;;;;;;11.50;70.26;99654.34;6157116;23;19913;-76
2022/02/06 10:46:56;;;;;;;;;;;;;;;11.43;67.36;99653.88;6183338;23;20319;-78
2022/02/06 10:49:22;;;;;;;;;;;;;;;11.19;67.47;99632.78;6182523;23;19912;-78
2022/02/06 10:52:00;;;;;;;;;;;;;;;11.11;68.06;99641.59;6183542;23;19908;-76
2022/02/06 10:54:32;;;;;;;;;;;;;;;11.06;68.72;99633.47;6182041;23;19916;-78
2022/02/06 10:57:10;;;;;;;;;;;;;;;10.97;68.00;99650.50;6184266;23;19908;-77
2022/02/06 10:59:53;;;;;;;;;;;;;;;10.78;66.40;99628.50;6183988;23;19999;-78
2022/02/06 11:02:25;;;;;;;;;;;;;;;10.75;68.55;99652.88;6181824;23;20274;-78
2022/02/06 11:05:20;;;;;;;;;;;;;;;10.88;68.21;99635.81;6186577;23;20310;-79
2022/02/06 11:08:03;;;;;;;;;;;;;;;10.91;67.45;99626.22;6186089;23;19915;-80
2022/02/06 11:14:11;;;;;;;;;;;;;;;11.07;67.48;99626.88;6052930;23;19916;-77
2022/02/06 11:16:49;;;;;;;;;;;;;;;11.26;66.74;99633.25;6179675;23;19912;-78
2022/02/06 11:19:17;;;;;;;;;;;;;;;11.55;64.84;99662.50;6186040;23;19908;-78
2022/02/06 11:21:45;;;;;;;;;;;;;;;11.81;64.91;99632.91;6185475;23;19912;-78
2022/02/06 11:24:20;;;;;;;;;;;;;;;11.88;64.63;99657.19;6160711;23;19978;-78
2022/02/06 11:26:46;;;;;;;;;;;;;;;11.86;64.73;99657.47;6159022;23;19916;-74
2022/02/06 11:29:14;;;;;;;;;;;;;;;11.92;65.46;99650.00;6184224;23;19912;-78
2022/02/06 11:31:43;;;;;;;;;;;;;;;11.89;63.54;99645.13;6188137;23;19908;-83
2022/02/06 11:34:20;;;;;;;;;;;;;;;11.94;63.60;99666.97;6185564;23;19991;-81
2022/02/06 11:45:36;;;;;;;;;;;;;;;15.96;54.97;99629.19;6187491;23;19915;-78
2022/02/06 11:48:04;;;;;;;;;;;;;;;15.41;54.01;99640.66;6195223;23;19956;-76
2022/02/06 11:50:31;;;;;;;;;;;;;;;14.47;56.12;99625.66;6203697;23;19909;-77
2022/02/06 11:53:00;;;;;;;;;;;;;;;13.65;59.33;99638.44;6206026;23;19920;-76
2022/02/06 11:55:31;;;;;;;;;;;;;;;13.35;61.10;99623.38;6202577;23;19926;-75
2022/02/06 11:58:18;;;;;;;;;;;;;;;13.20;64.30;99608.81;6201496;23;19916;-76
2022/02/06 12:00:44;;;;;;;;;;;;;;;13.07;68.79;99626.88;6205357;23;19927;-77
2022/02/06 12:03:13;;;;;;;;;;;;;;;12.72;69.70;99640.09;6200368;23;19928;-77
2022/02/06 12:05:57;;;;;;;;;;;;;;;12.29;71.18;99614.72;6197036;23;20367;-77
2022/02/06 12:08:22;;;;;;;;;;;;;;;12.34;72.53;99611.91;6197636;23;20261;-77
2022/02/06 12:10:59;;;;;;;;;;;;;;;12.27;71.74;99612.28;6171345;23;20053;-74
2022/02/06 12:13:30;;;;;;;;;;;;;;;12.25;73.67;99641.94;6186194;23;19962;-75
2022/02/06 12:15:59;;;;;;;;;;;;;;;12.51;72.75;99627.81;6159804;23;19912;-75
2022/02/06 12:18:25;;;;;;;;;;;;;;;12.26;70.94;99640.78;6135077;23;20335;-75
2022/02/06 12:21:13;;;;;;;;;;;;;;;12.04;71.65;99625.75;6186414;23;19912;-76
2022/02/06 12:23:46;;;;;;;;;;;;;;;11.51;71.22;99645.84;6145769;23;19908;-76
2022/02/06 12:26:40;;;;;;;;;;;;;;;;;;;;;
2022/02/06 12:29:40;;;;;;;;;;;;;;;10.02;76.88;99659.91;6183422;23;19986;-74
2022/02/06 12:32:03;;;;;;;;;;;;;;;9.57;79.68;99637.97;6177430;23;19908;-75
2022/02/06 12:37:35;;;;;;;;;;;;;;;9.05;82.85;99631.81;6185268;23;20290;-74
2022/02/06 12:40:05;;;;;;;;;;;;;;;8.93;83.65;99617.66;6183981;23;20320;-75
2022/02/06 12:42:37;;;;;;;;;;;;;;;8.91;84.90;99604.28;6159179;23;19908;-74
2022/02/06 12:45:05;;;;;;;;;;;;;;;8.93;85.03;99612.19;6160240;23;19912;-74
2022/02/06 12:47:37;;;;;;;;;;;;;;;8.81;85.35;99610.56;6187989;23;19936;-74
2022/02/06 12:50:12;;;;;;;;;;;;;;;8.73;85.98;99611.09;6165181;23;19912;-75
2022/02/06 12:52:38;;;;;;;;;;;;;;;8.84;86.45;99607.28;6190101;23;19931;-74
2022/02/06 12:55:13;;;;;;;;;;;;;;;8.80;86.64;99605.41;6188579;23;19935;-75
2022/02/06 12:57:48;;;;;;;;;;;;;;;9.00;87.33;99613.53;6188460;23;19912;-75
2022/02/06 13:00:25;;;;;;;;;;;;;;;9.95;88.50;99589.97;6187199;23;20323;-75
2022/02/06 13:03:03;;;;;;;;;;;;;;;;;;;;;
2022/02/06 13:05:29;;;;;;;;;;;;;;;12.15;78.26;99587.22;6190922;23;19928;-73
2022/02/06 13:08:02;;;;;;;;;;;;;;;11.65;76.46;99596.66;6190670;23;20334;-75
2022/02/06 13:10:28;;;;;;;;;;;;;;;11.22;76.93;99602.09;6189707;23;19960;-76
2022/02/06 13:13:17;;;;;;;;;;;;;;;10.76;78.44;99638.94;6188214;23;19959;-77
2022/02/06 13:16:11;;;;;;;;;;;;;;;;;;;;;
2022/02/06 13:19:17;;;;;;;;;;;;;;;9.67;82.58;99631.66;6183156;23;19912;-76
2022/02/06 13:24:07;;;;;;;;;;;;;;;9.04;85.38;99635.66;6192663;23;19908;-76
2022/02/06 13:32:06;;;;;;;;;;;;;;;8.88;87.48;99610.31;6198786;23;20275;-78
2022/02/06 13:37:22;;;;;;;;;;;;;;;8.85;87.95;99602.69;6189308;23;19912;-78
2022/02/06 13:39:53;;;;;;;;;;;;;;;8.90;88.25;99608.91;6167052;23;20450;-78
2022/02/06 13:42:29;;;;;;;;;;;;;;;8.94;88.37;99602.94;6191232;23;19909;-77
2022/02/06 13:45:02;;;;;;;;;;;;;;;9.07;87.96;99605.91;6194550;23;19915;-80
2022/02/06 13:47:33;;;;;;;;;;;;;;;9.04;88.10;99594.75;6192300;23;19952;-81
2022/02/06 13:50:20;;;;;;;;;;;;;;;9.19;88.39;99600.13;6173827;23;19913;-78
2022/02/06 13:53:06;;;;;;;;;;;;;;;9.28;88.29;99591.41;6194644;23;19912;-77
2022/02/06 13:58:53;;;;;;;;;;;;;;;;;;;;;
2022/02/06 14:01:22;;;;;;;;;;;;;;;9.46;87.36;99596.22;6105332;23;19948;-76
2022/02/06 14:04:09;;;;;;;;;;;;;;;9.42;86.78;99606.09;6167984;23;20342;-76
2022/02/06 14:07:00;;;;;;;;;;;;;;;9.36;86.36;99609.91;6191738;23;19913;-76
2022/02/06 14:10:41;;;;;;;;;;;;;;;;;;;;;
2022/02/06 14:25:46;;;;;;;;;;;;;;;;;;;;;
2022/02/06 14:35:28;;;;;;;;;;;;;;;;;;;;;
2022/02/06 15:00:32;;;;;;;;;;;;;;;9.27;84.45;99582.38;5890041;22;9361484;-75
2022/02/06 15:03:18;;;;;;;;;;;;;;;9.32;84.57;99587.03;6297583;22;19915;-75
2022/02/06 15:09:00;;;;;;;;;;;;;;;;;;;;;
2022/02/06 15:11:38;;;;;;;;;;;;;;;;;;;;;
2022/02/06 15:36:11;;;;;;;;;;;;;;;;;;;;;
2022/02/06 15:39:32;;;;;;;;;;;;;;;;;;;;;
2022/02/06 15:41:43;;;;;;;;;;;;;;;9.28;84.96;99597.66;6082348;23;19988;-76
2022/02/06 15:57:07;;;;;;;;;;;;;;;;;;;;;
2022/02/06 23:03:11;;;;;;;;;;;;;;;5.15;66.12;100612.22;6299866;22;19950;-77
2022/02/06 23:09:03;;;;;;;;;;;;;;;5.14;66.91;100626.81;6246462;23;19912;-75
2022/02/06 23:11:51;;;;;;;;;;;;;;;;;;;;;
2022/02/06 23:14:35;;;;;;;;;;;;;;;;;;;;;
2022/02/06 23:17:05;;;;;;;;;;;;;;;5.03;66.96;100644.66;6304375;22;19985;-76
2022/02/06 23:19:36;;;;;;;;;;;;;;;4.98;67.28;100661.59;6305482;22;19907;-75
2022/02/06 23:22:04;;;;;;;;;;;;;;;4.96;67.49;100655.56;6284217;22;19933;-75
2022/02/06 23:24:31;;;;;;;;;;;;;;;4.93;66.90;100663.31;6257169;22;19911;-75
2022/02/06 23:26:56;;;;;;;;;;;;;;;4.87;67.75;100667.75;6311621;22;19915;-75
2022/02/06 23:29:21;;;;;;;;;;;;;;;4.83;67.76;100669.25;6324929;22;19958;-76
2022/02/06 23:31:49;;;;;;;;;;;;;;;4.78;67.02;100682.63;6295071;22;19915;-75
2022/02/06 23:34:15;;;;;;;;;;;;;;;4.71;68.19;100694.34;6316589;22;20005;-75
2022/02/06 23:36:40;;;;;;;;;;;;;;;4.70;67.67;100698.13;6287145;22;19918;-73
2022/02/06 23:39:06;;;;;;;;;;;;;;;4.68;68.50;100713.75;6314619;22;20229;-75
2022/02/06 23:41:35;;;;;;;;;;;;;;;4.66;69.00;100726.69;6293625;22;19931;-74
2022/02/06 23:44:00;;;;;;;;;;;;;;;4.61;69.21;100737.34;6323019;22;19934;-74
2022/02/06 23:46:29;;;;;;;;;;;;;;;4.57;68.96;100738.84;6294869;22;19987;-74
2022/02/06 23:48:57;;;;;;;;;;;;;;;4.53;69.57;100743.03;6294316;22;19937;-75
2022/02/06 23:54:04;;;;;;;;;;;;;;;4.50;70.49;100757.84;6322097;22;19922;-75
2022/02/06 23:59:21;;;;;;;;;;;;;;;4.45;71.68;100735.16;6328731;22;19917;-76
